createdAt,value
2019-04-26T02:35:08.345Z,1004.86
2019-04-26T02:36:08.110Z,1004.84
2019-04-26T06:29:36.949Z,1005.79
2019-04-26T06:30:44.987Z,1006.06
2019-04-26T06:31:34.276Z,1006.05
2019-04-26T06:32:34.315Z,1005.96
2019-04-26T06:33:34.258Z,1005.74
2019-04-26T06:34:37.026Z,1005.86
2019-04-26T06:37:59.773Z,1005.84
2019-04-26T06:39:41.601Z,1006.20
2019-04-26T06:40:42.078Z,1006.09
2019-04-26T06:41:41.333Z,1005.77
2019-04-26T06:42:41.314Z,1005.65
2019-04-26T06:43:41.295Z,1005.80
2019-04-26T06:44:41.261Z,1005.91
2019-04-26T06:45:41.239Z,1005.89
2019-04-26T06:46:41.214Z,1006.22
2019-04-26T06:47:41.199Z,1005.94
2019-04-26T06:48:41.171Z,1005.75
2019-04-26T06:49:41.152Z,1006.11
2019-04-26T06:50:41.123Z,1006.31
2019-04-26T06:51:41.104Z,1006.36
2019-04-26T06:52:41.078Z,1006.49
2019-04-26T06:53:41.058Z,1006.40
2019-04-26T06:54:41.031Z,1006.42
2019-04-26T06:55:41.217Z,1006.48
2019-04-26T06:56:40.988Z,1006.48
2019-04-26T06:57:40.964Z,1006.39
2019-04-26T06:58:40.942Z,1006.48
2019-04-26T06:59:41.122Z,1006.46
2019-04-26T07:00:41.110Z,1006.53
2019-04-26T07:01:41.079Z,1006.51
2019-04-26T07:02:40.852Z,1006.49
2019-04-26T07:03:40.830Z,1006.55
2019-04-26T07:04:40.858Z,1006.56
2019-04-26T07:05:40.989Z,1006.58
2019-04-26T07:06:40.763Z,1006.57
2019-04-26T07:07:40.741Z,1006.66
2019-04-26T07:08:40.719Z,1006.68
2019-04-26T07:10:23.293Z,1006.79
2019-04-26T07:11:23.069Z,1006.79
2019-04-26T07:12:23.044Z,1006.80
2019-04-26T07:13:23.025Z,1006.88
2019-04-26T07:14:23.000Z,1006.87
2019-04-26T07:15:28.759Z,1006.90
2019-04-26T07:20:37.523Z,1006.90
2019-04-26T07:28:41.448Z,1007.07
2019-04-26T07:29:41.215Z,1006.92
2019-04-26T07:31:23.789Z,1007.04
2019-04-26T07:32:23.565Z,1007.06
2019-04-26T07:35:48.312Z,1007.14
2019-04-26T07:36:48.291Z,1007.03
2019-04-26T07:37:48.478Z,1007.02
2019-04-26T07:38:48.250Z,1007.14
2019-04-26T07:39:48.230Z,1007.30
2019-04-26T07:40:48.210Z,1007.19
2019-04-26T07:41:48.393Z,1007.33
2019-04-26T07:42:48.174Z,1007.35
2019-04-26T07:43:48.150Z,1007.38
2019-04-26T07:44:48.137Z,1007.42
2019-04-26T07:45:52.147Z,1007.30
2019-04-26T07:46:48.295Z,1007.30
2019-04-26T07:47:48.068Z,1007.39
2019-04-26T07:48:48.054Z,1007.24
2019-04-26T07:49:48.030Z,1007.39
2019-04-26T07:50:48.008Z,1007.28
2019-04-26T07:52:30.587Z,1007.44
2019-04-26T07:53:30.567Z,1007.35
2019-04-26T07:54:30.345Z,1007.48
2019-04-26T07:55:30.324Z,1007.47
2019-04-26T07:56:30.303Z,1007.64
2019-04-26T07:58:13.175Z,1007.60
2019-04-26T08:02:45.043Z,1007.39
2019-04-26T08:03:44.618Z,1007.38
2019-04-26T08:04:44.607Z,1007.06
2019-04-26T08:05:44.785Z,1007.42
2019-04-26T08:06:44.557Z,1007.32
2019-04-26T08:07:44.539Z,1007.30
2019-04-26T08:08:44.524Z,1007.28
2019-04-26T08:09:46.190Z,1007.34
2019-04-26T08:10:44.489Z,1007.35
2019-04-26T08:11:44.461Z,1007.47
2019-04-26T08:12:44.643Z,1007.41
2019-04-26T08:23:41.717Z,1007.40
2019-04-26T08:24:37.937Z,1007.46
2019-04-26T08:25:37.917Z,1007.52
2019-04-26T08:26:37.900Z,1007.41
2019-04-26T08:28:20.478Z,1007.43
2019-04-26T08:29:20.264Z,1007.43
2019-04-26T08:53:39.479Z,1007.08
2019-04-26T08:54:39.256Z,1007.24
2019-04-26T08:55:39.248Z,1007.19
2019-04-26T08:56:39.222Z,1007.31
2019-04-26T08:57:39.197Z,1007.49
2019-04-26T08:58:39.177Z,1007.68
2019-04-26T09:06:43.319Z,1008.08
2019-04-26T09:07:43.308Z,1008.13
2019-04-26T09:08:43.814Z,1008.07
2019-04-26T09:09:43.261Z,1008.19
2019-04-26T09:10:44.267Z,1008.07
2019-04-26T09:11:43.227Z,1008.15
2019-04-26T09:12:43.211Z,1008.10
2019-04-26T10:03:53.292Z,1007.96
2019-04-26T10:04:53.280Z,1008.15
2019-04-26T10:05:55.841Z,1007.96
2019-04-26T10:06:53.027Z,1007.80
2019-04-26T10:07:53.007Z,1008.14
2019-04-26T10:30:08.902Z,1008.04
2019-04-26T10:31:05.836Z,1008.12
2019-04-26T10:32:07.628Z,1008.19
2019-04-26T10:35:56.601Z,1008.13
2019-04-26T10:38:23.582Z,1008.19
2019-04-26T10:39:19.304Z,1008.10
2019-04-26T10:41:44.067Z,1008.00
2019-04-26T10:42:43.843Z,1008.04
2019-04-26T10:45:10.499Z,1008.07
2019-04-26T10:46:08.584Z,1008.10
2019-04-26T10:47:08.564Z,1008.09
2019-04-26T10:48:09.702Z,1008.00
2019-04-26T10:49:11.902Z,1008.09
2019-04-26T10:50:08.695Z,1008.15
2019-04-26T10:51:51.073Z,1008.16
2019-04-26T10:52:54.585Z,1008.27
2019-04-26T10:53:50.820Z,1008.20
2019-04-26T10:54:50.796Z,1008.28
2019-04-26T10:55:51.538Z,1008.31
2019-04-26T10:56:50.750Z,1008.46
2019-04-26T10:57:50.729Z,1008.60
2019-04-26T10:58:50.703Z,1008.38
2019-04-26T10:59:50.703Z,1008.46
2019-04-26T11:00:52.616Z,1008.39
2019-04-26T11:01:50.642Z,1008.29
2019-04-26T11:02:50.615Z,1008.28
2019-04-26T11:03:50.601Z,1008.18
2019-04-26T11:04:50.572Z,1008.31
2019-04-26T11:05:53.794Z,1008.25
2019-04-26T11:06:50.529Z,1008.10
2019-04-26T11:07:53.297Z,1008.23
2019-04-26T11:08:50.486Z,1008.22
2019-04-26T11:09:50.463Z,1008.14
2019-04-26T11:10:50.489Z,1008.25
2019-04-26T11:11:50.420Z,1008.20
2019-04-26T11:12:50.403Z,1008.21
2019-04-26T11:13:50.377Z,1008.28
2019-04-26T11:14:53.201Z,1008.35
2019-04-26T11:15:50.530Z,1008.45
2019-04-26T11:16:50.306Z,1008.64
2019-04-26T11:17:51.092Z,1008.52
2019-04-26T11:18:50.261Z,1008.54
2019-04-26T11:19:50.241Z,1008.43
2019-04-26T11:20:50.215Z,1008.47
2019-04-26T11:21:51.087Z,1008.46
2019-04-26T11:22:50.378Z,1008.43
2019-04-26T11:23:50.175Z,1008.41
2019-04-26T11:24:53.711Z,1008.36
2019-04-26T11:25:50.303Z,1008.44
2019-04-26T11:26:50.083Z,1008.44
2019-04-26T11:27:50.257Z,1008.44
2019-04-26T11:28:51.314Z,1008.47
2019-04-26T11:29:53.727Z,1008.42
2019-04-26T11:30:52.067Z,1008.53
2019-04-26T11:31:49.964Z,1008.41
2019-04-26T11:32:49.939Z,1008.51
2019-04-26T11:33:50.673Z,1008.43
2019-04-26T11:34:50.094Z,1008.54
2019-04-26T11:35:49.869Z,1008.69
2019-04-26T11:36:49.872Z,1008.76
2019-04-26T11:38:49.801Z,1008.66
2019-04-26T11:39:49.803Z,1008.59
2019-04-26T11:40:14.104Z,1008.75
2019-04-26T11:40:58.434Z,1008.67
2019-04-26T11:41:49.731Z,1008.64
2019-04-26T11:42:49.714Z,1008.60
2019-04-26T11:43:52.901Z,1008.61
2019-04-26T11:44:49.663Z,1008.60
2019-04-26T11:45:50.496Z,1008.56
2019-04-26T11:46:49.612Z,1008.67
2019-04-26T11:47:56.139Z,1008.76
2019-04-26T11:48:58.524Z,1008.86
2019-04-26T11:49:50.075Z,1008.82
2019-04-26T11:50:52.175Z,1008.82
2019-04-26T11:51:49.499Z,1008.69
2019-04-26T11:52:49.477Z,1008.66
2019-04-26T11:53:49.455Z,1008.50
2019-04-26T11:54:51.257Z,1008.42
2019-04-26T11:55:49.408Z,1008.48
2019-04-26T11:56:50.475Z,1008.56
2019-04-26T11:57:49.373Z,1008.77
2019-04-26T11:58:52.445Z,1008.62
2019-04-26T11:59:49.324Z,1008.69
2019-04-26T12:00:49.297Z,1008.41
2019-04-26T12:01:49.283Z,1008.41
2019-04-26T12:02:50.734Z,1008.48
2019-04-26T12:03:51.551Z,1008.47
2019-04-26T12:04:49.717Z,1008.62
2019-04-26T12:05:49.185Z,1008.67
2019-04-26T12:06:49.161Z,1008.68
2019-04-26T12:07:49.140Z,1008.64
2019-04-26T12:08:49.117Z,1008.64
2019-04-26T12:09:49.093Z,1008.77
2019-04-26T12:10:49.072Z,1008.80
2019-04-26T12:11:57.982Z,1008.73
2019-04-26T12:12:51.839Z,1008.74
2019-04-26T12:13:49.208Z,1008.86
2019-04-26T12:14:48.982Z,1008.74
2019-04-26T12:15:48.964Z,1008.65
2019-04-26T12:16:51.505Z,1008.76
2019-04-26T12:17:58.286Z,1008.82
2019-04-26T12:18:48.897Z,1008.66
2019-04-26T12:19:52.185Z,1008.82
2019-04-26T12:20:48.852Z,1008.79
2019-04-26T12:21:48.832Z,1008.84
2019-04-26T12:22:48.809Z,1008.78
2019-04-26T12:23:51.338Z,1008.89
2019-04-26T12:24:48.778Z,1008.79
2019-04-26T12:25:48.780Z,1008.78
2019-04-26T12:26:51.981Z,1008.68
2019-04-26T12:27:49.045Z,1008.57
2019-04-26T12:28:48.682Z,1008.58
2019-04-26T12:29:49.809Z,1008.63
2019-04-26T12:30:48.637Z,1008.53
2019-04-26T12:31:48.617Z,1008.49
2019-04-26T12:32:50.052Z,1008.44
2019-04-26T12:33:48.573Z,1008.57
2019-04-26T12:34:48.553Z,1008.65
2019-04-26T12:35:56.546Z,1008.55
2019-04-26T12:36:48.512Z,1008.52
2019-04-26T12:37:50.703Z,1008.68
2019-04-26T12:38:48.464Z,1008.67
2019-04-26T12:39:48.443Z,1008.67
2019-04-26T12:40:48.423Z,1008.56
2019-04-26T12:41:48.401Z,1008.65
2019-04-26T12:42:48.483Z,1008.61
2019-04-26T12:43:48.356Z,1008.61
2019-04-26T12:44:48.331Z,1008.58
2019-04-26T12:45:51.440Z,1008.51
2019-04-26T12:46:50.647Z,1008.44
2019-04-26T12:47:48.772Z,1008.48
2019-04-26T12:48:49.919Z,1008.55
2019-04-26T12:49:48.219Z,1008.54
2019-04-26T12:50:48.196Z,1008.63
2019-04-26T12:51:48.876Z,1008.75
2019-04-26T12:52:51.366Z,1008.82
2019-04-26T12:53:48.129Z,1008.62
2019-04-26T12:54:48.308Z,1008.73
2019-04-26T12:55:49.258Z,1008.69
2019-04-26T12:56:48.061Z,1008.65
2019-04-26T12:57:48.047Z,1008.67
2019-04-26T12:58:50.018Z,1008.63
2019-04-26T12:59:48.194Z,1008.67
2019-04-26T13:00:54.362Z,1008.64
2019-04-26T13:01:48.154Z,1008.70
2019-04-26T13:02:50.145Z,1008.66
2019-04-26T13:03:48.100Z,1008.63
2019-04-26T13:04:48.077Z,1008.59
2019-04-26T13:05:49.765Z,1008.65
2019-04-26T13:06:48.031Z,1008.59
2019-04-26T13:07:48.009Z,1008.54
2019-04-26T13:09:30.378Z,1008.47
2019-04-26T13:11:56.615Z,1008.47
2019-04-26T13:12:55.118Z,1008.53
2019-04-26T13:13:55.092Z,1008.63
2019-04-26T13:14:55.068Z,1008.65
2019-04-26T13:19:28.010Z,1008.70
2019-04-26T13:20:28.767Z,1008.58
2019-04-26T13:21:26.750Z,1008.52
2019-04-26T13:23:51.713Z,1008.71
2019-04-26T13:31:13.200Z,1008.59
2019-04-26T13:33:37.953Z,1008.68
2019-04-26T13:34:38.365Z,1008.43
2019-04-26T13:35:41.278Z,1008.60
2019-04-26T13:36:37.673Z,1008.65
2019-04-26T13:37:37.650Z,1008.44
2019-04-26T13:38:39.316Z,1008.65
2019-04-26T13:39:37.598Z,1008.60
2019-04-26T13:40:40.194Z,1008.74
2019-04-26T13:41:38.717Z,1008.69
2019-04-26T13:42:37.529Z,1008.71
2019-04-26T13:43:37.499Z,1008.75
2019-04-26T13:44:39.407Z,1008.60
2019-04-26T13:45:37.444Z,1008.90
2019-04-26T13:46:37.420Z,1008.94
2019-04-26T13:47:37.397Z,1008.89
2019-04-26T13:48:39.161Z,1008.86
2019-04-26T13:49:37.345Z,1008.80
2019-04-26T13:50:37.321Z,1008.76
2019-04-26T13:51:37.296Z,1008.86
2019-04-26T13:53:22.191Z,1008.83
2019-04-26T15:16:59.495Z,1009.45
2019-04-26T15:18:00.445Z,1009.37
2019-04-26T15:18:59.243Z,1009.43
2019-04-26T15:19:59.221Z,1009.32
2019-04-26T15:20:59.195Z,1009.05
2019-04-26T15:21:59.171Z,1009.44
2019-04-26T15:22:59.152Z,1009.51
2019-04-26T15:24:00.322Z,1009.73
2019-04-26T15:24:59.101Z,1009.89
2019-04-26T15:25:59.086Z,1009.72
2019-04-26T15:27:01.833Z,1009.53
2019-04-26T15:27:59.034Z,1009.49
2019-04-26T15:28:59.008Z,1009.55
2019-04-26T15:30:01.581Z,1009.71
2019-04-26T15:30:58.963Z,1009.68
2019-04-26T15:31:58.934Z,1009.64
2019-04-26T15:32:58.920Z,1009.62
2019-04-26T15:33:58.889Z,1009.65
2019-04-26T15:35:00.036Z,1009.67
2019-04-26T15:35:58.840Z,1009.69
2019-04-26T15:52:34.098Z,1009.96
2019-04-26T15:53:33.065Z,1009.81
2019-04-26T15:54:32.402Z,1009.84
2019-04-26T15:55:33.800Z,1009.84
2019-04-26T17:09:17.611Z,1010.22
2019-04-26T17:10:20.787Z,1010.20
2019-04-26T17:11:17.544Z,1010.31
2019-04-26T17:12:17.517Z,1010.37
2019-04-26T17:13:17.286Z,1010.28
2019-04-26T17:14:17.259Z,1010.43
2019-04-26T17:15:17.461Z,1010.35
2019-04-26T17:16:17.203Z,1010.32
2019-04-26T17:17:17.178Z,1010.28
2019-04-26T17:18:19.297Z,1010.19
2019-04-26T17:19:19.760Z,1010.22
2019-04-26T17:20:17.103Z,1010.24
2019-04-26T17:21:17.733Z,1010.28
2019-04-26T17:22:17.042Z,1010.22
2019-04-26T17:23:17.021Z,1010.21
2019-04-26T17:24:16.987Z,1010.22
2019-04-26T17:25:23.735Z,1010.21
2019-04-26T17:26:16.936Z,1010.15
2019-04-26T17:27:16.907Z,1010.26
2019-04-26T17:28:17.895Z,1010.21
2019-04-26T17:29:16.853Z,1010.20
2019-04-26T17:30:16.833Z,1010.13
2019-04-26T17:31:16.801Z,1010.15
2019-04-26T17:32:17.467Z,1010.09
2019-04-26T17:33:16.747Z,1010.05
2019-04-26T17:34:16.740Z,1010.00
2019-04-26T17:35:16.696Z,1010.03
2019-04-26T17:36:17.294Z,1010.05
2019-04-26T17:37:17.384Z,1010.10
2019-04-26T17:38:16.611Z,1010.01
2019-04-26T17:39:18.264Z,1010.12
2019-04-26T17:40:16.556Z,1010.17
2019-04-26T17:41:16.532Z,1010.24
2019-04-26T17:42:16.503Z,1010.21
2019-04-26T17:43:16.477Z,1010.38
2019-04-26T17:45:03.886Z,1010.37
2019-04-26T17:47:23.790Z,1010.38
2019-04-26T17:48:23.764Z,1010.37
2019-04-26T17:49:27.156Z,1010.34
2019-04-26T17:54:47.497Z,1010.44
2019-04-26T18:10:28.157Z,1010.25
2019-04-26T18:11:27.932Z,1010.25
2019-04-26T18:12:27.897Z,1010.29
2019-04-26T18:13:27.869Z,1010.40
2019-04-26T18:14:30.328Z,1010.39
2019-04-26T18:15:27.811Z,1010.36
2019-04-26T18:16:29.697Z,1010.42
2019-04-26T18:17:27.757Z,1010.37
2019-04-26T18:18:27.730Z,1010.48
2019-04-26T18:19:30.441Z,1010.35
2019-04-26T18:20:27.671Z,1010.46
2019-04-26T18:21:27.642Z,1010.42
2019-04-26T18:22:28.343Z,1010.44
2019-04-26T18:23:30.318Z,1010.44
2019-04-26T18:24:31.787Z,1010.51
2019-04-26T18:25:27.531Z,1010.40
2019-04-26T18:26:27.508Z,1010.51
2019-04-26T18:27:29.946Z,1010.47
2019-04-26T18:28:27.452Z,1010.40
2019-04-26T18:29:29.442Z,1010.41
2019-04-26T18:30:27.395Z,1010.42
2019-04-26T18:31:28.759Z,1010.47
2019-04-26T18:32:27.338Z,1010.47
2019-04-26T18:33:27.308Z,1010.55
2019-04-26T18:34:30.505Z,1010.45
2019-04-26T18:35:27.254Z,1010.54
2019-04-26T18:36:27.643Z,1010.48
2019-04-26T18:37:27.197Z,1010.49
2019-04-26T18:38:27.171Z,1010.55
2019-04-26T18:39:29.604Z,1010.46
2019-04-26T18:40:27.116Z,1010.51
2019-04-26T18:41:28.858Z,1010.55
2019-04-26T18:42:27.127Z,1010.54
2019-04-26T18:43:27.035Z,1010.44
2019-04-26T18:44:36.238Z,1010.35
2019-04-26T18:45:29.704Z,1010.39
2019-04-26T18:46:26.948Z,1010.42
2019-04-26T18:47:28.321Z,1010.40
2019-04-26T18:48:27.096Z,1010.43
2019-04-26T18:49:27.229Z,1010.46
2019-04-26T18:50:28.478Z,1010.48
2019-04-26T18:51:26.813Z,1010.46
2019-04-26T18:52:26.784Z,1010.42
2019-04-26T18:53:30.577Z,1010.43
2019-04-26T18:54:26.777Z,1010.48
2019-04-26T18:55:30.101Z,1010.41
2019-04-26T18:56:26.674Z,1010.49
2019-04-26T18:57:26.844Z,1010.46
2019-04-26T18:58:30.307Z,1010.51
2019-04-26T18:59:27.937Z,1010.54
2019-04-26T19:00:29.001Z,1010.58
2019-04-26T19:01:26.736Z,1010.51
2019-04-26T19:02:26.505Z,1010.53
2019-04-26T19:03:30.164Z,1010.54
2019-04-26T19:04:26.652Z,1010.54
2019-04-26T19:05:29.762Z,1010.48
2019-04-26T19:06:31.574Z,1010.55
2019-04-26T19:07:32.375Z,1010.48
2019-04-26T19:08:27.241Z,1010.43
2019-04-26T19:09:26.309Z,1010.52
2019-04-26T19:10:29.485Z,1010.60
2019-04-26T19:11:26.463Z,1010.56
2019-04-26T19:12:27.113Z,1010.57
2019-04-26T19:13:26.219Z,1010.58
2019-04-26T19:14:26.370Z,1010.54
2019-04-26T19:15:26.141Z,1010.54
2019-04-26T19:16:26.316Z,1010.56
2019-04-26T19:17:30.111Z,1010.57
2019-04-26T19:18:26.060Z,1010.56
2019-04-26T19:19:26.150Z,1010.59
2019-04-26T19:20:26.203Z,1010.54
2019-04-26T19:21:25.977Z,1010.53
2019-04-26T19:22:25.945Z,1010.51
2019-04-26T19:23:29.078Z,1010.52
2019-04-26T19:24:25.893Z,1010.57
2019-04-26T19:25:29.940Z,1010.62
2019-04-26T19:26:33.064Z,1010.63
2019-04-26T19:27:26.746Z,1010.66
2019-04-26T19:28:25.778Z,1010.62
2019-04-26T19:29:31.372Z,1010.73
2019-04-26T19:30:25.741Z,1010.74
2019-04-26T19:31:27.121Z,1010.78
2019-04-26T19:32:25.668Z,1010.75
2019-04-26T19:33:25.651Z,1010.80
2019-04-26T19:34:26.020Z,1010.87
2019-04-26T19:35:25.584Z,1010.95
2019-04-26T19:36:27.839Z,1010.93
2019-04-26T19:37:25.528Z,1010.93
2019-04-26T19:38:25.499Z,1010.92
2019-04-26T19:39:31.982Z,1010.88
2019-04-26T19:40:27.373Z,1010.89
2019-04-26T19:41:27.224Z,1010.88
2019-04-26T19:42:27.051Z,1010.82
2019-04-26T19:43:31.136Z,1010.82
2019-04-26T19:44:25.355Z,1010.96
2019-04-26T19:45:25.306Z,1010.85
2019-04-26T19:46:25.445Z,1010.94
2019-04-26T19:47:25.250Z,1011.00
2019-04-26T19:48:26.044Z,1010.92
2019-04-26T19:49:25.753Z,1010.93
2019-04-26T19:50:25.167Z,1010.90
2019-04-26T19:51:27.084Z,1010.92
2019-04-26T19:52:25.111Z,1010.86
2019-04-26T19:53:25.120Z,1010.90
2019-04-26T19:54:32.547Z,1010.89
2019-04-26T19:55:25.029Z,1010.94
2019-04-26T19:56:27.636Z,1010.91
2019-04-26T19:57:24.983Z,1011.00
2019-04-26T19:58:24.945Z,1010.98
2019-04-26T19:59:27.515Z,1010.95
2019-04-26T20:00:24.889Z,1010.92
2019-04-26T20:01:25.137Z,1010.99
2019-04-26T20:02:26.878Z,1010.89
2019-04-26T20:03:24.810Z,1010.84
2019-04-26T20:04:30.771Z,1010.84
2019-04-26T20:05:24.751Z,1010.85
2019-04-26T20:06:26.819Z,1010.88
2019-04-26T20:07:28.227Z,1010.85
2019-04-26T20:08:24.684Z,1010.82
2019-04-26T20:09:26.401Z,1010.78
2019-04-26T20:10:24.621Z,1010.78
2019-04-26T20:11:24.634Z,1010.69
2019-04-26T20:12:25.302Z,1010.64
2019-04-26T20:13:24.526Z,1010.60
2019-04-26T20:14:39.322Z,1010.58
2019-04-26T20:15:28.013Z,1010.65
2019-04-26T20:16:26.005Z,1010.72
2019-04-26T20:17:24.415Z,1010.79
2019-04-26T20:18:24.392Z,1010.81
2019-04-26T20:19:34.507Z,1010.89
2019-04-26T20:20:27.798Z,1010.90
2019-04-26T20:21:24.303Z,1010.93
2019-04-26T20:22:28.796Z,1010.91
2019-04-26T20:23:24.248Z,1011.00
2019-04-26T20:24:24.222Z,1011.06
2019-04-26T20:25:26.365Z,1011.06
2019-04-26T20:26:24.185Z,1011.01
2019-04-26T20:27:27.646Z,1011.05
2019-04-26T20:28:24.110Z,1011.01
2019-04-26T20:29:24.082Z,1011.04
2019-04-26T20:30:27.577Z,1011.02
2019-04-26T20:31:24.034Z,1011.03
2019-04-26T20:32:24.082Z,1010.98
2019-04-26T20:33:26.768Z,1010.99
2019-04-26T20:34:23.947Z,1010.99
2019-04-26T20:35:26.734Z,1010.99
2019-04-26T20:36:23.888Z,1011.01
2019-04-26T20:37:25.837Z,1011.00
2019-04-26T20:38:23.831Z,1011.02
2019-04-26T20:39:24.112Z,1011.09
2019-04-26T20:40:25.595Z,1011.10
2019-04-26T20:41:23.767Z,1011.07
2019-04-26T20:42:23.725Z,1011.08
2019-04-26T20:43:26.526Z,1011.04
2019-04-26T20:44:28.301Z,1011.11
2019-04-26T20:45:23.840Z,1011.12
2019-04-26T20:46:25.134Z,1011.18
2019-04-26T20:47:23.580Z,1011.20
2019-04-26T20:48:25.600Z,1011.21
2019-04-26T20:49:23.524Z,1011.22
2019-04-26T20:50:23.496Z,1011.24
2019-04-26T20:51:24.223Z,1011.20
2019-04-26T20:52:24.982Z,1011.13
2019-04-26T20:53:23.414Z,1011.20
2019-04-26T20:54:23.385Z,1011.16
2019-04-26T20:55:30.328Z,1011.11
2019-04-26T20:56:23.330Z,1011.17
2019-04-26T20:57:26.609Z,1011.10
2019-04-26T20:58:23.275Z,1011.13
2019-04-26T20:59:23.720Z,1011.14
2019-04-26T21:00:23.219Z,1011.14
2019-04-26T21:01:23.190Z,1011.21
2019-04-26T21:02:24.769Z,1011.21
2019-04-26T21:03:27.550Z,1011.25
2019-04-26T21:04:35.007Z,1011.24
2019-04-26T21:05:23.079Z,1011.26
2019-04-26T21:06:23.050Z,1011.23
2019-04-26T21:07:23.023Z,1011.22
2019-04-26T21:08:25.734Z,1011.23
2019-04-26T21:09:22.972Z,1011.23
2019-04-26T21:10:25.675Z,1011.27
2019-04-26T21:11:22.946Z,1011.27
2019-04-26T21:12:22.886Z,1011.29
2019-04-26T21:13:23.667Z,1011.32
2019-04-26T21:14:22.829Z,1011.39
2019-04-26T21:15:24.209Z,1011.39
2019-04-26T21:16:22.770Z,1011.40
2019-04-26T21:17:24.341Z,1011.44
2019-04-26T21:18:23.006Z,1011.48
2019-04-26T21:19:22.686Z,1011.52
2019-04-26T21:20:22.660Z,1011.43
2019-04-26T21:21:22.631Z,1011.51
2019-04-26T21:22:28.430Z,1011.59
2019-04-26T21:23:22.576Z,1011.61
2019-04-26T21:24:23.625Z,1011.62
2019-04-26T21:25:22.518Z,1011.66
2019-04-26T21:26:22.491Z,1011.72
2019-04-26T21:27:25.963Z,1011.66
2019-04-26T21:28:22.435Z,1011.72
2019-04-26T21:29:24.372Z,1011.76
2019-04-26T21:30:22.381Z,1011.72
2019-04-26T21:31:22.349Z,1011.74
2019-04-26T21:32:24.554Z,1011.73
2019-04-26T21:33:23.869Z,1011.72
2019-04-26T21:34:22.267Z,1011.69
2019-04-26T21:35:26.641Z,1011.64
2019-04-26T21:36:22.882Z,1011.62
2019-04-26T21:37:22.453Z,1011.55
2019-04-26T21:38:25.564Z,1011.53
2019-04-26T21:39:22.125Z,1011.45
2019-04-26T21:40:25.081Z,1011.47
2019-04-26T21:41:23.578Z,1011.41
2019-04-26T21:42:24.244Z,1011.40
2019-04-26T21:43:23.167Z,1011.36
2019-04-26T21:44:21.986Z,1011.37
2019-04-26T21:45:28.418Z,1011.33
2019-04-26T21:46:22.976Z,1011.30
2019-04-26T21:47:23.177Z,1011.31
2019-04-26T21:48:23.508Z,1011.27
2019-04-26T21:49:22.216Z,1011.23
2019-04-26T21:50:21.821Z,1011.20
2019-04-26T21:51:22.996Z,1011.16
2019-04-26T21:52:27.566Z,1011.11
2019-04-26T21:53:21.746Z,1011.07
2019-04-26T21:54:21.707Z,1011.04
2019-04-26T21:55:26.585Z,1011.09
2019-04-26T21:56:23.324Z,1011.09
2019-04-26T21:57:25.050Z,1011.04
2019-04-26T21:58:21.599Z,1010.97
2019-04-26T21:59:21.567Z,1010.99
2019-04-26T22:00:22.724Z,1010.93
2019-04-26T22:01:23.424Z,1010.93
2019-04-26T22:02:21.481Z,1010.83
2019-04-26T22:03:21.453Z,1010.83
2019-04-26T22:04:22.761Z,1010.75
2019-04-26T22:05:21.395Z,1010.70
2019-04-26T22:06:26.909Z,1010.69
2019-04-26T22:07:21.391Z,1010.66
2019-04-26T22:08:24.559Z,1010.69
2019-04-26T22:09:21.284Z,1010.68
2019-04-26T22:10:21.262Z,1010.76
2019-04-26T22:11:23.159Z,1010.83
2019-04-26T22:12:21.201Z,1010.73
2019-04-26T22:13:22.993Z,1010.76
2019-04-26T22:14:21.628Z,1010.80
2019-04-26T22:15:21.150Z,1010.79
2019-04-26T22:16:31.948Z,1010.83
2019-04-26T22:17:22.629Z,1010.83
2019-04-26T22:19:03.871Z,1010.89
2019-04-26T22:20:06.644Z,1010.95
2019-04-26T22:21:03.565Z,1011.01
2019-04-26T22:22:04.240Z,1011.05
2019-04-26T22:23:03.311Z,1011.09
2019-04-26T22:24:05.937Z,1011.09
2019-04-26T22:25:03.887Z,1011.14
2019-04-26T22:26:06.057Z,1011.19
2019-04-26T22:27:03.841Z,1011.19
2019-04-26T22:28:03.454Z,1011.27
2019-04-26T22:29:03.818Z,1011.30
2019-04-26T22:30:03.387Z,1011.39
2019-04-26T22:31:06.832Z,1011.41
2019-04-26T22:32:03.641Z,1011.45
2019-04-26T22:33:03.197Z,1011.41
2019-04-26T22:34:07.326Z,1011.37
2019-04-26T22:35:03.272Z,1011.26
2019-04-26T22:36:03.970Z,1011.31
2019-04-26T22:37:11.079Z,1011.29
2019-04-26T22:38:04.045Z,1011.32
2019-04-26T22:39:04.624Z,1011.33
2019-04-26T22:40:03.698Z,1011.43
2019-04-26T22:41:03.197Z,1011.43
2019-04-26T22:42:03.822Z,1011.48
2019-04-26T22:43:02.867Z,1011.50
2019-04-26T22:44:03.850Z,1011.55
2019-04-26T22:45:09.114Z,1011.57
2019-04-26T22:46:02.947Z,1011.59
2019-04-26T22:47:03.494Z,1011.57
2019-04-26T22:48:03.421Z,1011.58
2019-04-26T22:49:05.771Z,1011.49
2019-04-26T22:50:02.553Z,1011.42
2019-04-26T22:51:04.487Z,1011.33
2019-04-26T22:52:06.070Z,1011.24
2019-04-26T22:53:04.043Z,1011.12
2019-04-26T22:54:06.098Z,1011.10
2019-04-26T22:55:04.081Z,1011.11
2019-04-26T22:56:03.372Z,1011.07
2019-04-26T22:57:03.943Z,1011.14
2019-04-26T22:58:03.244Z,1011.11
2019-04-26T22:59:05.189Z,1011.20
2019-04-26T23:00:02.266Z,1011.15
2019-04-26T23:01:03.459Z,1011.13
2019-04-26T23:02:03.531Z,1011.08
2019-04-26T23:03:05.466Z,1011.08
2019-04-26T23:04:03.448Z,1011.04
2019-04-26T23:05:05.545Z,1011.00
2019-04-26T23:06:03.590Z,1011.01
2019-04-26T23:07:03.433Z,1011.04
2019-04-26T23:08:03.361Z,1011.04
2019-04-26T23:09:02.014Z,1011.08
2019-04-26T23:10:04.077Z,1011.12
2019-04-26T23:11:02.479Z,1011.19
2019-04-26T23:12:03.806Z,1011.16
2019-04-26T23:13:04.592Z,1011.15
2019-04-26T23:14:03.375Z,1011.21
2019-04-26T23:15:03.293Z,1011.20
2019-04-26T23:16:08.212Z,1011.22
2019-04-26T23:17:06.387Z,1011.22
2019-04-26T23:18:03.731Z,1011.28
2019-04-26T23:19:01.733Z,1011.21
2019-04-26T23:20:03.004Z,1011.25
2019-04-26T23:21:03.431Z,1011.23
2019-04-26T23:22:01.651Z,1011.23
2019-04-26T23:23:06.828Z,1011.25
2019-04-26T23:24:03.305Z,1011.22
2019-04-26T23:25:03.160Z,1011.22
2019-04-26T23:26:02.348Z,1011.17
2019-04-26T23:27:01.512Z,1011.11
2019-04-26T23:28:01.482Z,1011.05
2019-04-26T23:29:01.455Z,1010.96
2019-04-26T23:30:01.426Z,1010.87
2019-04-26T23:31:07.719Z,1010.82
2019-04-26T23:32:03.490Z,1010.85
2019-04-26T23:33:01.342Z,1010.88
2019-04-26T23:34:02.942Z,1010.83
2019-04-26T23:35:02.915Z,1010.85
2019-04-26T23:36:01.263Z,1010.78
2019-04-26T23:37:03.097Z,1010.75
2019-04-26T23:38:03.517Z,1010.73
2019-04-26T23:39:02.983Z,1010.73
2019-04-26T23:40:01.148Z,1010.73
2019-04-26T23:41:06.839Z,1010.74
2019-04-26T23:42:01.139Z,1010.74
2019-04-26T23:43:02.728Z,1010.77
2019-04-26T23:44:06.291Z,1010.76
2019-04-26T23:45:01.007Z,1010.74
2019-04-26T23:46:00.977Z,1010.73
2019-04-26T23:47:02.157Z,1010.71
2019-04-26T23:48:00.971Z,1010.71
2019-04-26T23:49:00.894Z,1010.68
2019-04-26T23:50:00.866Z,1010.67
2019-04-26T23:51:04.926Z,1010.69
2019-04-26T23:52:00.813Z,1010.66
2019-04-26T23:53:00.775Z,1010.68
2019-04-26T23:54:00.748Z,1010.74
2019-04-26T23:55:07.251Z,1010.74
2019-04-26T23:56:00.693Z,1010.72
2019-04-26T23:57:00.664Z,1010.70
2019-04-26T23:58:00.635Z,1010.69
2019-04-26T23:59:00.608Z,1010.69
